createdAt,value
2022-09-09T00:02:06.032Z,14.93
2022-09-09T00:05:20.673Z,13.88
2022-09-09T00:08:46.504Z,13.80
2022-09-09T00:11:54.677Z,14.27
2022-09-09T00:15:03.327Z,15.35
2022-09-09T00:18:20.728Z,14.90
2022-09-09T00:21:28.698Z,13.20
2022-09-09T00:24:41.788Z,15.47
2022-09-09T00:27:51.000Z,14.05
2022-09-09T00:30:55.454Z,14.75
2022-09-09T00:34:06.365Z,15.40
2022-09-09T00:37:11.688Z,16.33
2022-09-09T00:40:27.370Z,15.63
2022-09-09T00:43:32.812Z,16.60
2022-09-09T00:47:03.874Z,16.20
2022-09-09T00:50:25.559Z,13.03
2022-09-09T00:53:43.001Z,16.13
2022-09-09T00:57:02.283Z,15.25
2022-09-09T01:00:26.688Z,14.87
2022-09-09T01:03:37.935Z,13.10
2022-09-09T01:06:41.719Z,13.07
2022-09-09T01:09:59.472Z,11.87
2022-09-09T01:13:14.752Z,11.50
2022-09-09T01:16:19.676Z,20.87
2022-09-09T01:19:40.219Z,14.27
2022-09-09T01:22:59.118Z,13.10
2022-09-09T01:26:23.568Z,15.00
2022-09-09T01:29:27.527Z,14.77
2022-09-09T01:32:44.571Z,16.97
2022-09-09T01:35:55.350Z,14.10
2022-09-09T01:39:00.838Z,13.30
2022-09-09T01:42:09.002Z,14.40
2022-09-09T01:45:12.445Z,14.20
2022-09-09T01:48:15.806Z,12.57
2022-09-09T01:51:22.468Z,14.07
2022-09-09T01:54:32.466Z,16.33
2022-09-09T01:57:49.467Z,18.37
2022-09-09T02:01:08.857Z,16.67
2022-09-09T02:04:36.274Z,17.30
2022-09-09T02:07:48.808Z,13.20
2022-09-09T02:11:07.920Z,13.83
2022-09-09T02:14:25.294Z,12.33
2022-09-09T02:17:32.425Z,12.50
2022-09-09T02:20:43.375Z,13.47
2022-09-09T02:23:50.295Z,11.90
2022-09-09T02:26:56.428Z,12.43
2022-09-09T02:30:04.079Z,12.03
2022-09-09T02:33:16.244Z,12.20
2022-09-09T02:36:26.423Z,12.32
2022-09-09T02:39:29.689Z,14.30
2022-09-09T02:42:32.906Z,11.27
2022-09-09T02:45:47.494Z,13.20
2022-09-09T02:49:02.656Z,11.53
2022-09-09T02:52:17.152Z,11.73
2022-09-09T02:55:26.671Z,10.37
2022-09-09T02:58:33.501Z,12.57
2022-09-09T03:01:42.631Z,14.47
2022-09-09T03:04:51.895Z,14.73
2022-09-09T03:07:55.883Z,10.77
2022-09-09T03:11:02.295Z,11.27
2022-09-09T03:14:09.415Z,14.17
2022-09-09T03:17:14.850Z,13.93
2022-09-09T03:20:26.854Z,11.60
2022-09-09T03:23:30.328Z,11.27
2022-09-09T03:26:35.930Z,10.37
2022-09-09T03:29:40.191Z,12.40
2022-09-09T03:32:49.071Z,11.80
2022-09-09T03:35:52.520Z,12.73
2022-09-09T03:38:57.534Z,13.70
2022-09-09T03:42:04.808Z,11.97
2022-09-09T03:45:11.890Z,12.07
2022-09-09T03:48:20.008Z,11.93
2022-09-09T03:51:23.474Z,12.70
2022-09-09T03:54:28.284Z,12.83
2022-09-09T03:57:35.813Z,14.87
2022-09-09T04:00:43.259Z,11.73
2022-09-09T04:03:47.828Z,14.27
2022-09-09T04:06:52.008Z,12.43
2022-09-09T04:09:55.509Z,11.80
2022-09-09T04:12:58.529Z,11.57
2022-09-09T04:16:04.589Z,12.40
2022-09-09T04:19:09.696Z,11.23
2022-09-09T04:22:12.709Z,15.13
2022-09-09T04:25:17.683Z,11.63
2022-09-09T04:28:24.385Z,12.53
2022-09-09T04:31:28.027Z,13.43
2022-09-09T04:34:34.471Z,12.63
2022-09-09T04:37:38.144Z,11.13
2022-09-09T04:40:43.813Z,11.50
2022-09-09T04:43:47.399Z,12.23
2022-09-09T04:46:51.892Z,11.57
2022-09-09T04:49:56.172Z,12.63
2022-09-09T04:53:04.628Z,12.13
2022-09-09T04:56:13.568Z,15.33
2022-09-09T04:59:21.449Z,12.57
2022-09-09T05:02:31.753Z,10.70
2022-09-09T05:05:37.632Z,10.60
2022-09-09T05:08:42.226Z,12.13
2022-09-09T05:11:45.943Z,13.73
2022-09-09T05:14:58.531Z,13.87
2022-09-09T05:18:03.423Z,13.80
2022-09-09T05:21:09.598Z,11.57
2022-09-09T05:24:12.904Z,11.53
2022-09-09T05:27:16.553Z,11.63
2022-09-09T05:30:20.187Z,12.23
2022-09-09T05:33:23.407Z,14.90
2022-09-09T05:36:28.064Z,17.77
2022-09-09T05:39:33.976Z,11.30
2022-09-09T05:42:37.133Z,14.17
2022-09-09T05:45:40.916Z,12.70
2022-09-09T05:48:47.623Z,18.73
2022-09-09T05:52:01.865Z,15.03
2022-09-09T05:55:06.219Z,12.93
2022-09-09T05:58:10.240Z,12.68
2022-09-09T06:01:17.068Z,12.50
2022-09-09T06:04:22.506Z,11.87
2022-09-09T06:07:27.414Z,12.53
2022-09-09T06:10:31.100Z,10.10
2022-09-09T06:13:34.774Z,8.57
2022-09-09T06:16:39.599Z,7.38
2022-09-09T06:19:49.008Z,12.60
2022-09-09T06:22:53.308Z,7.78
2022-09-09T06:26:06.543Z,10.90
2022-09-09T06:29:11.426Z,10.52
2022-09-09T06:32:14.545Z,10.13
2022-09-09T06:35:17.596Z,9.65
2022-09-09T06:38:22.633Z,7.97
2022-09-09T06:41:29.164Z,8.32
2022-09-09T06:44:35.582Z,8.18
2022-09-09T06:47:41.214Z,8.57
2022-09-09T06:50:44.796Z,6.35
2022-09-09T06:53:51.847Z,6.93
2022-09-09T06:56:55.024Z,8.73
2022-09-09T07:00:00.348Z,9.52
2022-09-09T07:03:03.425Z,8.70
2022-09-09T07:06:08.332Z,5.28
2022-09-09T07:09:16.022Z,13.15
2022-09-09T07:12:21.819Z,8.63
2022-09-09T07:15:31.406Z,11.25
2022-09-09T07:18:35.688Z,5.50
2022-09-09T07:21:41.207Z,11.02
2022-09-09T07:24:46.800Z,8.70
2022-09-09T07:27:51.491Z,7.18
2022-09-09T07:30:56.380Z,8.00
2022-09-09T07:34:00.701Z,9.55
2022-09-09T07:37:04.154Z,7.13
2022-09-09T07:40:11.221Z,8.32
2022-09-09T07:43:17.321Z,6.55
2022-09-09T07:46:23.095Z,6.97
2022-09-09T07:49:31.051Z,9.18
2022-09-09T07:52:36.986Z,6.43
2022-09-09T07:55:43.780Z,7.05
2022-09-09T07:58:48.416Z,9.90
2022-09-09T08:01:55.412Z,8.02
2022-09-09T08:05:01.132Z,5.85
2022-09-09T08:08:05.363Z,5.90
2022-09-09T08:11:13.212Z,6.70
2022-09-09T08:14:16.450Z,10.07
2022-09-09T08:17:19.791Z,9.20
2022-09-09T08:20:24.208Z,8.48
2022-09-09T08:23:27.564Z,6.97
2022-09-09T08:26:35.285Z,8.68
2022-09-09T08:29:40.100Z,7.05
2022-09-09T08:32:45.953Z,7.80
2022-09-09T08:35:53.795Z,6.78
2022-09-09T08:38:59.058Z,6.18
2022-09-09T08:42:27.107Z,7.55
2022-09-09T08:45:36.536Z,6.97
2022-09-09T08:48:57.618Z,9.65
2022-09-09T08:52:02.302Z,8.20
2022-09-09T08:55:23.729Z,8.68
2022-09-09T08:58:31.209Z,7.60
2022-09-09T09:01:48.041Z,5.22
2022-09-09T09:05:10.696Z,6.50
2022-09-09T09:08:23.532Z,8.65
2022-09-09T09:11:27.177Z,5.97
2022-09-09T09:14:35.261Z,8.18
2022-09-09T09:17:40.928Z,7.35
2022-09-09T09:21:02.616Z,5.03
2022-09-09T09:24:19.737Z,6.00
2022-09-09T09:27:34.613Z,4.35
2022-09-09T09:30:46.878Z,3.55
2022-09-09T09:33:54.065Z,5.28
2022-09-09T09:37:02.829Z,6.57
2022-09-09T09:40:13.378Z,8.18
2022-09-09T09:43:22.440Z,6.80
2022-09-09T09:46:28.367Z,7.82
2022-09-09T09:49:37.813Z,7.90
2022-09-09T09:52:43.727Z,5.22
2022-09-09T09:55:56.448Z,6.95
2022-09-09T09:59:01.856Z,4.32
2022-09-09T10:02:25.759Z,4.40
2022-09-09T10:05:38.255Z,5.95
2022-09-09T10:08:48.361Z,5.45
2022-09-09T10:12:01.699Z,5.40
2022-09-09T10:15:31.945Z,4.10
2022-09-09T10:18:52.544Z,4.97
2022-09-09T10:22:19.093Z,4.93
2022-09-09T10:25:54.543Z,4.82
2022-09-09T10:29:17.422Z,8.80
2022-09-09T10:32:39.176Z,7.43
2022-09-09T10:35:54.036Z,4.75
2022-09-09T10:39:03.354Z,5.97
2022-09-09T10:42:10.206Z,6.32
2022-09-09T10:45:21.144Z,3.22
2022-09-09T10:48:39.374Z,4.63
2022-09-09T10:51:54.726Z,3.75
2022-09-09T10:55:03.596Z,3.63
2022-09-09T10:58:09.401Z,9.13
2022-09-09T11:01:19.451Z,5.30
2022-09-09T11:04:27.907Z,5.35
2022-09-09T11:07:40.368Z,4.78
2022-09-09T11:10:53.411Z,6.18
2022-09-09T11:14:03.308Z,6.47
2022-09-09T11:17:13.094Z,4.10
2022-09-09T11:20:16.681Z,4.15
2022-09-09T11:23:28.804Z,6.20
2022-09-09T11:26:38.825Z,3.85
2022-09-09T11:30:03.789Z,3.88
2022-09-09T11:33:33.164Z,3.63
2022-09-09T11:37:17.039Z,6.80
2022-09-09T11:40:26.601Z,3.85
2022-09-09T11:43:33.782Z,5.57
2022-09-09T11:46:40.531Z,5.22
2022-09-09T11:49:46.542Z,3.50
2022-09-09T11:52:50.929Z,3.28
2022-09-09T11:56:08.342Z,3.17
2022-09-09T11:59:25.276Z,4.25
2022-09-09T12:02:32.004Z,4.95
2022-09-09T12:05:41.409Z,5.28
2022-09-09T12:08:47.442Z,2.17
2022-09-09T12:11:52.473Z,2.45
2022-09-09T12:15:22.940Z,3.55
2022-09-09T12:18:27.852Z,6.45
2022-09-09T12:21:41.716Z,3.72
2022-09-09T12:24:51.920Z,4.47
2022-09-09T12:28:08.677Z,2.60
2022-09-09T12:31:21.034Z,2.38
2022-09-09T12:34:42.126Z,2.40
2022-09-09T12:37:51.048Z,2.55
2022-09-09T12:40:58.296Z,2.08
2022-09-09T12:44:08.914Z,3.05
2022-09-09T12:47:14.436Z,3.03
2022-09-09T12:50:21.508Z,3.60
2022-09-09T12:53:28.073Z,3.15
2022-09-09T12:56:33.498Z,4.35
2022-09-09T12:59:41.287Z,3.47
2022-09-09T13:02:53.937Z,2.58
2022-09-09T13:06:12.528Z,3.28
2022-09-09T13:12:23.475Z,3.42
2022-09-09T13:15:30.861Z,3.78
2022-09-09T13:18:36.807Z,16.58
2022-09-09T13:21:41.419Z,1.73
2022-09-09T13:24:44.676Z,3.13
2022-09-09T13:27:58.019Z,2.50
2022-09-09T13:31:04.370Z,4.35
2022-09-09T13:34:14.978Z,4.00
2022-09-09T13:37:26.413Z,3.15
2022-09-09T13:40:29.605Z,3.08
2022-09-09T13:43:37.617Z,2.53
2022-09-09T13:46:44.039Z,4.82
2022-09-09T13:49:47.279Z,5.32
2022-09-09T13:52:52.093Z,2.70
2022-09-09T13:55:55.619Z,2.50
2022-09-09T13:58:58.773Z,2.47
2022-09-09T14:02:03.417Z,5.30
2022-09-09T14:05:07.283Z,6.47
2022-09-09T14:08:26.308Z,2.70
2022-09-09T14:11:29.626Z,3.58
2022-09-09T14:14:32.663Z,3.22
2022-09-09T14:17:37.116Z,5.05
2022-09-09T14:20:40.181Z,4.00
2022-09-09T14:23:43.627Z,4.03
2022-09-09T14:26:46.743Z,2.97
2022-09-09T14:29:49.716Z,3.67
2022-09-09T14:32:53.973Z,5.05
2022-09-09T14:35:58.956Z,7.35
2022-09-09T14:39:01.889Z,4.03
2022-09-09T14:42:05.357Z,3.55
2022-09-09T14:45:10.534Z,5.45
2022-09-09T14:48:15.605Z,4.97
2022-09-09T14:51:22.056Z,4.55
2022-09-09T14:54:25.063Z,2.83
2022-09-09T14:57:28.329Z,3.72
2022-09-09T15:00:31.609Z,3.80
2022-09-09T15:03:36.022Z,2.90
2022-09-09T15:06:40.137Z,2.95
2022-09-09T15:09:43.132Z,4.72
2022-09-09T15:12:46.618Z,4.97
2022-09-09T15:15:50.918Z,3.35
2022-09-09T15:18:57.650Z,4.78
2022-09-09T15:22:01.299Z,4.00
2022-09-09T15:25:05.130Z,3.20
2022-09-09T15:28:08.067Z,3.22
2022-09-09T15:31:18.433Z,6.90
2022-09-09T15:34:23.011Z,4.82
2022-09-09T15:37:25.919Z,4.95
2022-09-09T15:40:28.827Z,5.07
2022-09-09T15:43:31.814Z,3.10
2022-09-09T15:46:38.404Z,3.00
2022-09-09T15:49:43.850Z,5.15
2022-09-09T15:52:46.966Z,2.30
2022-09-09T15:55:54.322Z,4.95
2022-09-09T15:59:00.513Z,4.55
2022-09-09T16:02:03.973Z,4.22
2022-09-09T16:05:09.832Z,6.57
2022-09-09T16:08:14.105Z,3.85
2022-09-09T16:11:20.798Z,7.80
2022-09-09T16:14:23.808Z,8.52
2022-09-09T16:17:28.582Z,2.47
2022-09-09T16:20:33.150Z,3.90
2022-09-09T16:23:37.096Z,2.80
2022-09-09T16:26:43.910Z,2.70
2022-09-09T16:29:46.915Z,8.25
2022-09-09T16:32:50.194Z,5.63
2022-09-09T16:35:54.487Z,7.72
2022-09-09T16:38:59.938Z,5.65
2022-09-09T16:42:04.018Z,6.13
2022-09-09T16:45:08.143Z,7.75
2022-09-09T16:48:11.635Z,5.95
2022-09-09T16:51:19.725Z,6.28
2022-09-09T16:54:24.373Z,4.32
2022-09-09T16:57:29.657Z,9.05
2022-09-09T17:00:32.659Z,4.85
2022-09-09T17:03:35.718Z,5.80
2022-09-09T17:06:40.077Z,8.77
2022-09-09T17:09:43.366Z,6.68
2022-09-09T17:12:47.058Z,5.38
2022-09-09T17:15:50.101Z,4.53
2022-09-09T17:18:53.542Z,3.13
2022-09-09T17:22:16.342Z,4.30
2022-09-09T17:25:20.682Z,5.53
2022-09-09T17:28:27.182Z,2.60
2022-09-09T17:31:33.465Z,5.72
2022-09-09T17:34:37.157Z,3.08
2022-09-09T17:37:41.451Z,3.60
2022-09-09T17:40:44.627Z,3.20
2022-09-09T17:43:48.417Z,4.13
2022-09-09T17:46:51.491Z,3.95
2022-09-09T17:49:54.472Z,3.88
2022-09-09T17:52:58.736Z,5.78
2022-09-09T17:56:06.077Z,4.88
2022-09-09T17:59:11.232Z,3.67
2022-09-09T18:02:14.259Z,3.40
2022-09-09T18:05:19.098Z,4.20
2022-09-09T18:08:23.363Z,6.63
2022-09-09T18:11:28.707Z,4.88
2022-09-09T18:14:34.236Z,3.08
2022-09-09T18:20:45.553Z,5.38
2022-09-09T18:23:52.112Z,6.15
2022-09-09T18:26:55.205Z,4.95
2022-09-09T18:29:58.177Z,4.20
2022-09-09T18:33:01.121Z,3.55
2022-09-09T18:36:09.273Z,4.13
2022-09-09T18:39:15.615Z,4.85
2022-09-09T18:42:18.561Z,5.82
2022-09-09T18:45:22.634Z,5.35
2022-09-09T18:48:25.881Z,6.05
2022-09-09T18:51:30.760Z,5.20
2022-09-09T18:54:35.044Z,4.28
2022-09-09T18:57:38.835Z,5.13
2022-09-09T19:00:41.861Z,4.57
2022-09-09T19:03:44.895Z,5.25
2022-09-09T19:06:49.550Z,4.28
2022-09-09T19:09:53.829Z,7.22
2022-09-09T19:12:57.245Z,12.30
2022-09-09T19:16:05.594Z,33.00
2022-09-09T19:19:12.816Z,40.83
2022-09-09T19:22:15.786Z,16.40
2022-09-09T19:25:20.252Z,12.05
2022-09-09T19:28:23.163Z,7.97
2022-09-09T19:31:27.935Z,7.13
2022-09-09T19:34:31.157Z,6.90
2022-09-09T19:37:34.689Z,4.93
2022-09-09T19:40:39.897Z,5.80
2022-09-09T19:43:43.033Z,7.10
2022-09-09T19:46:47.253Z,4.15
2022-09-09T19:49:51.453Z,4.60
2022-09-09T19:52:55.753Z,5.03
2022-09-09T19:56:04.329Z,3.55
2022-09-09T19:59:09.638Z,5.00
2022-09-09T20:02:15.405Z,4.80
2022-09-09T20:05:18.735Z,4.65
2022-09-09T20:08:21.769Z,4.78
2022-09-09T20:11:27.079Z,3.92
2022-09-09T20:14:30.077Z,6.03
2022-09-09T20:17:33.019Z,4.25
2022-09-09T20:20:41.565Z,5.28
2022-09-09T20:23:46.216Z,4.53
2022-09-09T20:26:50.740Z,4.40
2022-09-09T20:29:53.888Z,7.32
2022-09-09T20:32:57.107Z,3.10
2022-09-09T20:36:05.077Z,4.70
2022-09-09T20:39:11.066Z,5.32
2022-09-09T20:42:15.327Z,6.75
2022-09-09T20:45:18.311Z,3.33
2022-09-09T20:48:21.289Z,3.67
2022-09-09T20:51:26.024Z,5.68
2022-09-09T20:54:31.116Z,3.63
2022-09-09T20:57:38.348Z,3.70
2022-09-09T21:00:41.274Z,4.55
2022-09-09T21:03:45.235Z,3.80
2022-09-09T21:06:50.063Z,3.03
2022-09-09T21:09:53.034Z,3.13
2022-09-09T21:12:58.391Z,4.68
2022-09-09T21:16:01.935Z,5.00
2022-09-09T21:19:05.270Z,2.78
2022-09-09T21:22:08.283Z,3.83
2022-09-09T21:25:11.622Z,4.05
2022-09-09T21:28:17.282Z,3.17
2022-09-09T21:31:27.012Z,2.65
2022-09-09T21:34:30.989Z,4.22
2022-09-09T21:37:34.244Z,3.10
2022-09-09T21:40:39.100Z,4.55
2022-09-09T21:43:46.839Z,4.03
2022-09-09T21:46:49.787Z,4.45
2022-09-09T21:49:52.735Z,3.38
2022-09-09T21:52:55.942Z,2.90
2022-09-09T21:56:03.204Z,3.17
2022-09-09T21:59:08.095Z,6.25
2022-09-09T22:02:11.725Z,3.70
2022-09-09T22:05:14.752Z,4.33
2022-09-09T22:08:18.176Z,8.68
2022-09-09T22:11:24.729Z,4.00
2022-09-09T22:14:29.242Z,3.55
2022-09-09T22:17:32.166Z,2.92
2022-09-09T22:20:41.714Z,6.07
2022-09-09T22:23:46.573Z,4.55
2022-09-09T22:26:50.036Z,3.45
2022-09-09T22:29:54.439Z,4.68
2022-09-09T22:32:57.975Z,6.25
2022-09-09T22:36:00.902Z,9.00
2022-09-09T22:39:04.651Z,6.30
2022-09-09T22:42:07.967Z,3.35
2022-09-09T22:45:12.635Z,4.22
2022-09-09T22:48:16.774Z,4.22
2022-09-09T22:51:19.729Z,4.07
2022-09-09T22:54:23.552Z,3.38
2022-09-09T22:57:26.757Z,3.20
2022-09-09T23:00:31.055Z,3.10
2022-09-09T23:03:34.152Z,5.93
2022-09-09T23:06:38.465Z,4.00
2022-09-09T23:09:41.376Z,5.57
2022-09-09T23:12:44.401Z,5.13
2022-09-09T23:15:49.692Z,6.25
2022-09-09T23:18:55.115Z,8.83
2022-09-09T23:21:58.294Z,10.00
2022-09-09T23:25:01.846Z,4.18
2022-09-09T23:28:05.233Z,5.82
2022-09-09T23:31:12.954Z,14.20
2022-09-09T23:34:16.227Z,13.80
2022-09-09T23:37:19.467Z,6.35
2022-09-09T23:40:23.067Z,5.40
2022-09-09T23:43:26.692Z,4.95
2022-09-09T23:46:33.343Z,6.13
2022-09-09T23:49:39.233Z,5.32
2022-09-09T23:52:43.845Z,6.15
2022-09-09T23:55:46.788Z,6.37
2022-09-09T23:58:50.542Z,7.28
